Time;durP1;ratioP1;P1;durP2;ratioP2;P2;SDS_P1;SDS_P2;PMS_P1;PMS_P2;Temp;Humidity;BMP_temperature;BMP_pressure;BME280_temperature;BME280_humidity;BME280_pressure;Samples;Min_cycle;Max_cycle;Signal;HPM_P1;HPM_P2
2024/03/07 00:00:45;;;;;;;59.80;40.50;;;5.10;99.90;;;;;;7365484;19;20029;-63
2024/03/07 00:03:11;;;;;;;61.08;41.80;;;5.10;99.90;;;;;;7373776;19;20024;-63
2024/03/07 00:05:39;;;;;;;57.30;38.55;;;5.10;99.90;;;;;;7371119;19;20022;-63
2024/03/07 00:08:09;;;;;;;58.80;40.38;;;5.10;99.90;;;;;;7369044;19;20518;-64
2024/03/07 00:10:36;;;;;;;64.55;39.88;;;5.10;99.90;;;;;;7365842;19;20621;-63
2024/03/07 00:13:03;;;;;;;53.22;37.50;;;5.00;99.90;;;;;;7370388;19;20100;-63
2024/03/07 00:15:29;;;;;;;47.97;33.65;;;5.00;99.90;;;;;;7369815;19;20078;-63
2024/03/07 00:17:56;;;;;;;57.13;36.90;;;5.00;99.90;;;;;;7374708;19;20018;-63
2024/03/07 00:20:22;;;;;;;55.45;38.15;;;5.10;99.90;;;;;;7369879;19;20046;-63
2024/03/07 00:22:48;;;;;;;48.10;30.67;;;5.10;99.90;;;;;;7369918;19;20053;-63
2024/03/07 00:25:19;;;;;;;52.97;37.92;;;5.00;99.90;;;;;;7369991;19;20780;-64
2024/03/07 00:27:45;;;;;;;50.28;35.63;;;5.00;99.90;;;;;;7374561;19;20054;-64
2024/03/07 00:30:13;;;;;;;48.03;34.13;;;5.00;99.90;;;;;;7371055;19;20097;-63
2024/03/07 00:32:40;;;;;;;49.78;34.17;;;5.00;99.90;;;;;;7374387;19;20115;-63
2024/03/07 00:35:08;;;;;;;47.03;32.97;;;4.90;99.90;;;;;;7369930;19;20749;-63
2024/03/07 00:37:38;;;;;;;48.15;34.25;;;4.80;99.90;;;;;;7369980;19;20025;-63
2024/03/07 00:40:06;;;;;;;45.30;33.55;;;4.80;99.90;;;;;;7374254;19;20022;-63
2024/03/07 00:42:32;;;;;;;47.38;34.50;;;4.80;99.90;;;;;;7371020;19;20018;-63
2024/03/07 00:44:58;;;;;;;39.53;30.88;;;4.80;99.90;;;;;;7368643;19;20018;-63
2024/03/07 00:47:25;;;;;;;45.50;31.88;;;4.70;99.90;;;;;;7372817;19;20025;-64
2024/03/07 00:49:51;;;;;;;43.55;32.28;;;4.70;99.90;;;;;;7373093;19;20029;-63
2024/03/07 00:52:18;;;;;;;46.08;30.63;;;4.70;99.90;;;;;;7372393;19;20018;-63
2024/03/07 00:54:44;;;;;;;38.75;31.25;;;4.60;99.90;;;;;;7370405;19;20011;-63
2024/03/07 00:57:11;;;;;;;41.72;31.50;;;4.60;99.90;;;;;;7371921;19;20022;-64
2024/03/07 00:59:37;;;;;;;41.25;31.17;;;4.60;99.90;;;;;;7372965;19;20025;-64
2024/03/07 01:02:04;;;;;;;43.35;30.58;;;4.50;99.90;;;;;;7374495;19;20478;-63
2024/03/07 01:04:33;;;;;;;42.38;29.17;;;4.50;99.90;;;;;;7369358;19;20022;-64
2024/03/07 01:07:00;;;;;;;39.95;29.95;;;4.50;99.90;;;;;;7371910;19;20419;-64
2024/03/07 01:09:30;;;;;;;38.78;27.10;;;4.50;99.90;;;;;;7373824;19;20352;-63
2024/03/07 01:11:56;;;;;;;38.70;28.23;;;4.50;99.90;;;;;;7372524;19;20379;-63
2024/03/07 01:14:23;;;;;;;39.15;29.13;;;4.40;99.90;;;;;;7369578;19;21034;-63
2024/03/07 01:16:49;;;;;;;38.13;29.83;;;4.40;99.90;;;;;;7372309;19;20015;-63
2024/03/07 01:19:15;;;;;;;38.83;29.33;;;4.30;99.90;;;;;;7371892;19;20029;-63
2024/03/07 01:21:41;;;;;;;40.40;30.48;;;4.30;99.90;;;;;;7371745;19;20026;-63
2024/03/07 01:24:09;;;;;;;39.25;28.55;;;4.30;99.90;;;;;;7370278;19;20019;-63
2024/03/07 01:26:35;;;;;;;36.70;28.40;;;4.20;99.90;;;;;;7371017;19;20030;-63
2024/03/07 01:29:01;;;;;;;36.60;27.98;;;4.20;99.90;;;;;;7370423;19;20094;-63
2024/03/07 01:31:28;;;;;;;37.33;29.33;;;4.20;99.90;;;;;;7370104;19;20018;-63
2024/03/07 01:33:54;;;;;;;36.63;27.38;;;4.20;99.90;;;;;;7366768;19;20025;-63
2024/03/07 01:36:21;;;;;;;34.92;28.58;;;4.10;99.90;;;;;;7367815;19;20033;-63
2024/03/07 01:38:47;;;;;;;38.75;28.67;;;4.10;99.90;;;;;;7365942;19;20775;-63
2024/03/07 01:41:14;;;;;;;39.33;28.83;;;4.10;99.90;;;;;;7369876;19;20015;-63
2024/03/07 01:43:44;;;;;;;41.58;28.73;;;4.00;99.90;;;;;;7369981;19;20032;-64
2024/03/07 01:46:11;;;;;;;35.47;28.23;;;4.00;99.90;;;;;;7365861;19;20029;-63
2024/03/07 01:48:38;;;;;;;37.75;29.17;;;3.90;99.90;;;;;;7368811;19;20015;-63
2024/03/07 01:51:05;;;;;;;38.22;28.05;;;3.90;99.90;;;;;;7366987;19;20047;-63
2024/03/07 01:53:32;;;;;;;39.65;28.67;;;3.80;99.90;;;;;;7370946;19;20022;-63
2024/03/07 01:56:03;;;;;;;36.22;27.67;;;3.80;99.90;;;;;;7366361;19;20125;-63
2024/03/07 01:58:34;;;;;;;39.90;27.33;;;3.80;99.90;;;;;;7370591;19;20015;-64
2024/03/07 02:01:01;;;;;;;39.30;29.15;;;3.70;99.90;;;;;;7365663;19;20018;-63
2024/03/07 02:03:27;;;;;;;36.80;27.88;;;3.70;99.90;;;;;;7365448;19;20026;-63
2024/03/07 02:05:56;;;;;;;33.33;26.17;;;3.70;99.90;;;;;;7368407;19;20521;-64
2024/03/07 02:08:22;;;;;;;40.60;29.58;;;3.60;99.90;;;;;;7363052;19;20037;-63
2024/03/07 02:10:49;;;;;;;36.20;28.42;;;3.60;99.90;;;;;;7371034;19;20022;-63
2024/03/07 02:13:16;;;;;;;38.70;27.58;;;3.50;99.90;;;;;;7369220;19;20057;-63
2024/03/07 02:15:42;;;;;;;37.33;27.77;;;3.50;99.90;;;;;;7366337;19;20497;-63
2024/03/07 02:18:09;;;;;;;37.95;28.63;;;3.40;99.90;;;;;;7371837;19;20023;-64
2024/03/07 02:20:35;;;;;;;38.22;26.88;;;3.40;99.90;;;;;;7370770;19;20032;-63
2024/03/07 02:23:03;;;;;;;37.45;29.35;;;3.40;99.90;;;;;;7366530;19;20026;-63
2024/03/07 02:25:31;;;;;;;40.08;28.73;;;3.40;99.90;;;;;;7366216;19;20025;-64
2024/03/07 02:27:58;;;;;;;39.40;27.48;;;3.40;99.90;;;;;;7366263;19;20018;-63
2024/03/07 02:30:24;;;;;;;37.58;27.67;;;3.30;99.90;;;;;;7365838;19;20051;-64
2024/03/07 02:32:54;;;;;;;37.92;28.73;;;3.30;99.90;;;;;;7370296;19;20018;-64
2024/03/07 02:35:21;;;;;;;36.17;26.83;;;3.30;99.90;;;;;;7375588;19;20878;-63
2024/03/07 02:37:47;;;;;;;40.47;30.50;;;3.30;99.90;;;;;;7374236;19;20090;-63
2024/03/07 02:40:14;;;;;;;37.78;28.48;;;3.30;99.90;;;;;;7372822;19;20104;-64
2024/03/07 02:42:41;;;;;;;37.58;27.77;;;3.30;99.90;;;;;;7368440;19;20482;-63
2024/03/07 02:45:07;;;;;;;39.95;29.48;;;3.30;99.90;;;;;;7375099;19;20018;-63
2024/03/07 02:47:34;;;;;;;37.42;26.98;;;3.20;99.90;;;;;;7376324;19;20022;-63
2024/03/07 02:50:00;;;;;;;35.60;28.85;;;3.20;99.90;;;;;;7371232;19;20022;-63
2024/03/07 02:52:26;;;;;;;43.65;29.65;;;3.10;99.90;;;;;;7372583;19;20019;-64
2024/03/07 02:54:53;;;;;;;42.65;29.65;;;3.20;99.90;;;;;;7372096;19;20082;-63
2024/03/07 02:57:19;;;;;;;42.97;31.10;;;3.10;99.90;;;;;;7371966;19;20082;-63
2024/03/07 02:59:45;;;;;;;38.10;29.65;;;3.10;99.90;;;;;;7373149;19;20026;-63
2024/03/07 03:02:12;;;;;;;39.38;28.83;;;3.00;99.90;;;;;;7370174;19;20014;-63
2024/03/07 03:04:38;;;;;;;41.10;31.30;;;3.10;99.90;;;;;;7374611;19;20057;-63
2024/03/07 03:07:05;;;;;;;40.28;29.67;;;3.00;99.90;;;;;;7369961;19;20015;-63
2024/03/07 03:09:33;;;;;;;41.50;30.00;;;3.00;99.90;;;;;;7374020;19;20041;-62
2024/03/07 03:12:00;;;;;;;38.63;29.52;;;2.90;99.90;;;;;;7371366;19;20041;-63
2024/03/07 03:14:26;;;;;;;41.50;29.50;;;3.00;99.90;;;;;;7375398;19;20031;-63
2024/03/07 03:16:52;;;;;;;36.15;27.08;;;2.80;99.90;;;;;;7370354;19;20416;-64
2024/03/07 03:19:18;;;;;;;40.55;29.40;;;2.80;99.90;;;;;;7375112;19;20351;-63
2024/03/07 03:21:45;;;;;;;43.33;29.85;;;2.80;99.90;;;;;;7373697;19;20011;-64
2024/03/07 03:24:11;;;;;;;38.17;28.95;;;2.80;99.90;;;;;;7368939;19;20022;-64
2024/03/07 03:26:37;;;;;;;39.65;28.67;;;2.80;99.90;;;;;;7365344;19;20510;-64
2024/03/07 03:29:03;;;;;;;41.78;30.13;;;2.70;99.90;;;;;;7367287;19;20023;-63
2024/03/07 03:31:33;;;;;;;37.15;27.35;;;2.70;99.90;;;;;;7368160;19;20119;-64
2024/03/07 03:34:01;;;;;;;36.30;27.73;;;2.70;99.90;;;;;;7369772;19;20090;-63
2024/03/07 03:36:27;;;;;;;39.15;27.67;;;2.60;99.90;;;;;;7369199;19;20650;-63
2024/03/07 03:38:53;;;;;;;39.70;29.65;;;2.60;99.90;;;;;;7373242;19;20022;-63
2024/03/07 03:41:20;;;;;;;38.13;28.98;;;2.60;99.90;;;;;;7370153;19;20020;-63
2024/03/07 03:43:47;;;;;;;39.40;27.38;;;2.60;99.90;;;;;;7372140;19;20022;-63
2024/03/07 03:46:13;;;;;;;37.83;27.70;;;2.50;99.90;;;;;;7366643;19;20392;-63
2024/03/07 03:48:40;;;;;;;38.47;27.80;;;2.50;99.90;;;;;;7369410;19;20025;-63
2024/03/07 03:51:08;;;;;;;43.45;27.92;;;2.50;99.90;;;;;;7372432;19;20015;-63
2024/03/07 03:53:37;;;;;;;37.08;27.02;;;2.40;99.90;;;;;;7373907;19;20027;-63
2024/03/07 03:56:06;;;;;;;36.17;27.88;;;2.40;99.90;;;;;;7373375;19;20017;-64
2024/03/07 03:58:32;;;;;;;35.35;27.90;;;2.40;99.90;;;;;;7366569;19;20535;-63
2024/03/07 04:00:58;;;;;;;36.20;29.02;;;2.40;99.90;;;;;;7370950;19;20280;-64
2024/03/07 04:03:25;;;;;;;36.63;26.80;;;2.40;99.90;;;;;;7371619;19;20233;-64
2024/03/07 04:05:51;;;;;;;39.65;28.70;;;2.30;99.90;;;;;;7372968;19;20101;-64
2024/03/07 04:08:19;;;;;;;39.72;28.80;;;2.30;99.90;;;;;;7369692;19;20029;-63
2024/03/07 04:10:45;;;;;;;37.97;27.88;;;2.30;99.90;;;;;;7371065;19;20492;-64
2024/03/07 04:13:11;;;;;;;35.75;27.77;;;2.30;99.90;;;;;;7370432;19;20475;-63
2024/03/07 04:15:37;;;;;;;34.45;26.63;;;2.20;99.90;;;;;;7368069;19;20018;-64
2024/03/07 04:18:04;;;;;;;35.67;27.05;;;2.20;99.90;;;;;;7372670;19;20018;-64
2024/03/07 04:20:31;;;;;;;36.10;26.38;;;2.20;99.90;;;;;;7373495;19;20596;-63
2024/03/07 04:22:57;;;;;;;37.92;27.27;;;2.20;99.90;;;;;;7372696;19;20030;-64
2024/03/07 04:25:24;;;;;;;35.45;27.77;;;2.10;99.90;;;;;;7370368;19;20038;-64
2024/03/07 04:27:51;;;;;;;34.40;27.83;;;2.10;99.90;;;;;;7372797;19;20530;-63
2024/03/07 04:30:17;;;;;;;37.28;25.95;;;2.10;99.90;;;;;;7373748;19;20018;-64
2024/03/07 04:32:43;;;;;;;36.08;25.88;;;2.10;99.90;;;;;;7374484;19;20034;-64
2024/03/07 04:35:10;;;;;;;33.72;26.20;;;2.10;99.90;;;;;;7365745;19;20543;-63
2024/03/07 04:37:40;;;;;;;38.42;27.73;;;2.00;99.90;;;;;;7370018;19;20021;-64
2024/03/07 04:40:15;;;;;;;32.10;24.80;;;2.00;99.90;;;;;;7370324;19;20014;-64
2024/03/07 04:42:49;;;;;;;33.72;25.30;;;2.00;99.90;;;;;;7370909;19;20022;-65
2024/03/07 04:45:15;;;;;;;35.45;26.05;;;1.90;99.90;;;;;;7370707;19;20018;-64
2024/03/07 04:47:44;;;;;;;36.20;26.80;;;1.90;99.90;;;;;;7367897;19;20023;-64
2024/03/07 04:50:11;;;;;;;37.63;27.67;;;1.90;99.90;;;;;;7370038;19;20037;-64
2024/03/07 04:52:39;;;;;;;34.47;25.52;;;1.80;99.90;;;;;;7370558;19;20040;-63
2024/03/07 04:55:10;;;;;;;35.83;26.10;;;1.80;99.90;;;;;;7366838;19;20085;-64
2024/03/07 04:57:41;;;;;;;37.28;26.08;;;1.80;99.90;;;;;;7369917;19;20049;-64
2024/03/07 05:00:13;;;;;;;36.05;25.98;;;1.70;99.90;;;;;;7369362;19;20090;-64
2024/03/07 05:02:41;;;;;;;31.70;25.30;;;1.70;99.90;;;;;;7370794;19;20022;-63
2024/03/07 05:05:07;;;;;;;32.97;25.02;;;1.70;99.90;;;;;;7365306;19;20037;-64
2024/03/07 05:07:37;;;;;;;36.65;27.08;;;1.70;99.90;;;;;;7364094;19;20010;-64
2024/03/07 05:10:08;;;;;;;34.25;26.63;;;1.70;99.90;;;;;;7363523;19;20483;-64
2024/03/07 05:12:34;;;;;;;38.20;25.90;;;1.70;99.90;;;;;;7361941;19;20014;-64
2024/03/07 05:15:01;;;;;;;33.53;25.33;;;1.70;99.90;;;;;;7363870;19;20081;-64
2024/03/07 05:17:28;;;;;;;37.80;27.98;;;1.60;99.90;;;;;;7364733;19;20383;-64
2024/03/07 05:19:54;;;;;;;37.05;25.23;;;1.60;99.90;;;;;;7365989;19;20010;-63
2024/03/07 05:22:25;;;;;;;33.90;24.10;;;1.60;99.90;;;;;;7366317;19;20026;-65
2024/03/07 05:24:52;;;;;;;33.30;25.73;;;1.60;99.90;;;;;;7369951;19;20777;-64
2024/03/07 05:27:18;;;;;;;34.22;25.45;;;1.60;99.90;;;;;;7366579;19;20811;-63
2024/03/07 05:29:44;;;;;;;32.95;25.98;;;1.50;99.90;;;;;;7370952;19;20022;-65
2024/03/07 05:32:27;;;;;;;32.78;24.67;;;1.60;99.90;;;;;;7369924;19;20122;-65
2024/03/07 05:34:54;;;;;;;35.45;25.98;;;1.50;99.90;;;;;;7367860;19;20014;-64
2024/03/07 05:37:21;;;;;;;37.08;25.00;;;1.50;99.90;;;;;;7365390;19;20018;-62
2024/03/07 05:39:49;;;;;;;36.53;26.95;;;1.50;99.90;;;;;;7360332;19;20021;-63
2024/03/07 05:42:15;;;;;;;34.42;25.83;;;1.40;99.90;;;;;;7366392;19;20027;-64
2024/03/07 05:44:45;;;;;;;35.00;26.05;;;1.40;99.90;;;;;;7364692;19;20816;-63
2024/03/07 05:47:13;;;;;;;34.75;26.58;;;1.40;99.90;;;;;;7358364;19;20026;-64
2024/03/07 05:49:43;;;;;;;37.38;27.65;;;1.40;99.90;;;;;;7360398;19;20090;-65
2024/03/07 05:52:09;;;;;;;33.58;25.48;;;1.40;99.90;;;;;;7359004;19;20401;-65
2024/03/07 05:54:36;;;;;;;35.45;27.13;;;1.30;99.90;;;;;;7357042;19;20526;-64
2024/03/07 05:57:02;;;;;;;36.35;26.85;;;1.30;99.90;;;;;;7356388;19;20019;-64
2024/03/07 05:59:30;;;;;;;35.85;26.92;;;1.30;99.90;;;;;;7361563;19;20504;-62
2024/03/07 06:01:57;;;;;;;37.53;26.00;;;1.30;99.90;;;;;;7358146;19;20015;-64
2024/03/07 06:04:23;;;;;;;32.10;25.10;;;1.20;99.90;;;;;;7354709;19;20052;-64
2024/03/07 06:06:50;;;;;;;38.70;26.85;;;1.20;99.90;;;;;;7358504;19;20613;-64
2024/03/07 06:09:21;;;;;;;32.80;25.50;;;1.20;99.90;;;;;;7369422;19;20022;-64
2024/03/07 06:11:48;;;;;;;35.50;25.85;;;1.20;99.90;;;;;;7368083;19;20014;-65
2024/03/07 06:14:16;;;;;;;37.92;27.38;;;1.20;99.90;;;;;;7366540;19;20053;-65
2024/03/07 06:16:42;;;;;;;38.17;27.00;;;1.20;99.90;;;;;;7371618;19;20022;-66
2024/03/07 06:19:09;;;;;;;34.30;26.13;;;1.20;99.90;;;;;;7372328;19;20039;-66
2024/03/07 06:21:39;;;;;;;38.05;28.77;;;1.20;99.90;;;;;;7374596;19;20018;-66
2024/03/07 06:24:07;;;;;;;39.35;28.73;;;1.20;99.90;;;;;;7374337;19;21269;-64
2024/03/07 06:29:13;;;;;;;38.20;28.27;;;1.20;99.90;;;;;;7368493;19;20018;-66
2024/03/07 06:31:41;;;;;;;39.08;27.33;;;1.20;99.90;;;;;;7373155;19;20019;-66
2024/03/07 06:34:08;;;;;;;38.80;27.55;;;1.20;99.90;;;;;;7370295;19;20011;-65
2024/03/07 06:36:35;;;;;;;40.80;28.92;;;1.30;99.90;;;;;;7375708;19;20028;-65
2024/03/07 06:39:05;;;;;;;38.97;29.17;;;1.30;99.90;;;;;;7371247;19;20053;-65
2024/03/07 06:41:36;;;;;;;36.03;27.55;;;1.30;99.90;;;;;;7369249;19;20094;-63
2024/03/07 06:44:03;;;;;;;;;;;1.30;99.90;;;;;;7372411;19;20023;-64
2024/03/07 06:46:30;;;;;;;39.25;28.65;;;1.30;99.90;;;;;;7366864;19;19926;-64
2024/03/07 06:48:57;;;;;;;36.42;27.85;;;1.30;99.90;;;;;;7368714;19;20023;-63
2024/03/07 06:51:24;;;;;;;37.03;29.25;;;1.40;99.90;;;;;;7372030;19;20022;-64
2024/03/07 06:53:50;;;;;;;41.67;30.48;;;1.40;99.90;;;;;;7375484;19;20015;-66
2024/03/07 06:56:17;;;;;;;40.50;29.55;;;1.40;99.90;;;;;;7372685;19;20023;-65
2024/03/07 06:58:48;;;;;;;41.33;29.70;;;1.50;99.90;;;;;;7369788;19;20015;-65
2024/03/07 07:01:15;;;;;;;38.15;28.63;;;1.50;99.90;;;;;;7374026;19;20015;-66
2024/03/07 07:03:45;;;;;;;38.28;29.40;;;1.60;99.90;;;;;;7373893;19;20018;-65
2024/03/07 07:06:12;;;;;;;40.50;29.50;;;1.60;99.90;;;;;;7371155;19;20034;-64
2024/03/07 07:08:38;;;;;;;47.67;31.55;;;1.70;99.90;;;;;;7374381;19;20025;-64
2024/03/07 07:11:05;;;;;;;39.20;30.48;;;1.80;99.90;;;;;;7372411;19;20029;-64
2024/03/07 07:13:31;;;;;;;38.63;30.13;;;1.90;99.90;;;;;;7366393;19;20033;-64
2024/03/07 07:15:58;;;;;;;41.00;30.67;;;1.90;99.90;;;;;;7376465;19;20015;-64
2024/03/07 07:18:25;;;;;;;38.97;30.90;;;2.10;99.90;;;;;;7370465;19;20887;-65
2024/03/07 07:20:54;;;;;;;38.13;29.48;;;2.20;99.90;;;;;;7368697;19;20022;-65
2024/03/07 07:23:23;;;;;;;38.15;29.13;;;2.30;99.90;;;;;;7371195;19;20981;-64
2024/03/07 07:25:49;;;;;;;35.03;29.45;;;2.40;99.90;;;;;;7371956;19;20023;-64
2024/03/07 07:28:16;;;;;;;33.35;26.80;;;2.50;99.90;;;;;;7372554;19;20014;-64
2024/03/07 07:30:42;;;;;;;37.00;28.73;;;2.60;99.90;;;;;;7371882;19;20024;-64
2024/03/07 07:33:08;;;;;;;37.42;28.95;;;2.70;99.90;;;;;;7367835;19;20022;-64
2024/03/07 07:35:35;;;;;;;33.28;26.67;;;2.80;99.90;;;;;;7369698;19;20070;-64
2024/03/07 07:38:01;;;;;;;31.40;26.92;;;2.80;99.90;;;;;;7370917;19;20043;-64
2024/03/07 07:40:31;;;;;;;33.67;27.58;;;2.80;99.90;;;;;;7369374;19;20112;-64
2024/03/07 07:42:57;;;;;;;33.17;26.38;;;3.00;99.90;;;;;;7371168;19;20010;-64
2024/03/07 07:45:24;;;;;;;31.45;26.10;;;3.40;99.90;;;;;;7373905;19;20018;-64
2024/03/07 07:47:51;;;;;;;30.77;26.98;;;3.40;99.90;;;;;;7371470;19;20022;-66
2024/03/07 07:50:19;;;;;;;30.52;26.70;;;3.60;99.90;;;;;;7369748;19;20046;-64
2024/03/07 07:52:50;;;;;;;34.90;28.30;;;3.80;99.90;;;;;;7371321;19;20018;-63
2024/03/07 07:55:17;;;;;;;32.58;27.63;;;4.00;99.90;;;;;;7369947;19;20915;-66
2024/03/07 07:57:44;;;;;;;31.02;27.33;;;4.20;99.90;;;;;;7370196;19;20023;-62
2024/03/07 08:00:23;;;;;;;34.72;29.50;;;4.30;99.90;;;;;;7368187;19;20021;-63
2024/03/07 08:02:55;;;;;;;31.55;27.70;;;4.40;99.90;;;;;;7372071;19;20055;-62
2024/03/07 08:05:24;;;;;;;41.60;34.60;;;4.20;99.90;;;;;;7362677;19;20381;-62
2024/03/07 08:07:56;;;;;;;38.17;31.15;;;4.10;99.90;;;;;;7369476;19;20542;-64
2024/03/07 08:10:28;;;;;;;38.25;29.88;;;4.00;99.90;;;;;;7362719;19;20041;-63
2024/03/07 08:12:58;;;;;;;53.58;41.28;;;3.80;99.90;;;;;;7364555;19;20025;-63
2024/03/07 08:15:27;;;;;;;41.30;32.80;;;3.60;99.90;;;;;;7369558;19;20538;-62
2024/03/07 08:17:55;;;;;;;43.80;33.78;;;3.40;99.90;;;;;;7370662;19;20017;-63
2024/03/07 08:20:22;;;;;;;46.13;36.47;;;3.40;99.90;;;;;;7370652;19;20786;-63
2024/03/07 08:22:53;;;;;;;45.20;34.08;;;3.40;99.90;;;;;;7367817;19;20058;-62
2024/03/07 08:25:20;;;;;;;42.53;32.67;;;3.30;99.90;;;;;;7369686;19;20018;-63
2024/03/07 08:27:53;;;;;;;47.05;36.20;;;3.20;99.90;;;;;;7368745;19;20014;-63
2024/03/07 08:30:20;;;;;;;47.17;31.83;;;3.10;99.90;;;;;;7367144;19;20025;-63
2024/03/07 08:32:54;;;;;;;45.85;32.20;;;3.20;99.90;;;;;;7368279;19;20014;-63
2024/03/07 08:35:21;;;;;;;49.90;34.40;;;3.10;99.90;;;;;;7365317;19;20022;-63
2024/03/07 08:37:55;;;;;;;51.35;36.55;;;3.00;99.90;;;;;;7368275;19;20045;-63
2024/03/07 08:40:23;;;;;;;47.88;34.47;;;3.00;99.90;;;;;;7366702;19;20046;-63
2024/03/07 08:42:51;;;;;;;57.25;39.92;;;3.00;99.90;;;;;;7367860;19;20018;-63
2024/03/07 08:45:21;;;;;;;56.28;36.58;;;2.90;99.90;;;;;;7364308;19;20118;-62
2024/03/07 08:47:54;;;;;;;46.40;32.83;;;2.90;99.90;;;;;;7369034;19;20029;-65
2024/03/07 08:50:20;;;;;;;56.75;36.17;;;2.90;99.90;;;;;;7366779;19;20074;-65
2024/03/07 08:52:48;;;;;;;54.13;37.15;;;3.00;99.90;;;;;;7366933;19;20060;-65
2024/03/07 08:55:16;;;;;;;53.42;35.22;;;3.00;99.90;;;;;;7369170;19;20011;-65
2024/03/07 08:57:45;;;;;;;53.13;35.53;;;2.90;99.90;;;;;;7370594;19;20010;-65
2024/03/07 09:00:22;;;;;;;52.03;35.30;;;2.90;99.90;;;;;;7369280;19;20021;-64
2024/03/07 09:02:52;;;;;;;52.90;35.40;;;2.90;99.90;;;;;;7368926;19;20026;-65
2024/03/07 09:05:19;;;;;;;52.17;31.33;;;2.90;99.90;;;;;;7369702;19;20018;-65
2024/03/07 09:07:46;;;;;;;63.55;42.10;;;2.90;99.90;;;;;;7363546;19;20073;-65
2024/03/07 09:10:17;;;;;;;53.15;34.10;;;2.90;99.90;;;;;;7369590;19;20021;-65
2024/03/07 09:12:44;;;;;;;50.25;31.33;;;2.90;99.90;;;;;;7368864;19;20406;-65
2024/03/07 09:15:11;;;;;;;56.60;34.78;;;2.90;99.90;;;;;;7369389;19;20348;-65
2024/03/07 09:17:39;;;;;;;45.92;29.08;;;2.70;99.90;;;;;;7368873;19;20348;-64
2024/03/07 09:20:06;;;;;;;55.13;36.47;;;2.80;99.90;;;;;;7369032;19;20396;-65
2024/03/07 09:22:32;;;;;;;44.08;29.48;;;2.70;99.90;;;;;;7368630;19;20021;-64
2024/03/07 09:24:59;;;;;;;46.85;26.63;;;2.80;99.90;;;;;;7366952;19;20026;-65
2024/03/07 09:27:25;;;;;;;50.63;32.55;;;2.90;99.90;;;;;;7371655;19;20023;-67
2024/03/07 09:29:51;;;;;;;45.33;30.20;;;2.90;99.90;;;;;;7373090;19;20018;-65
2024/03/07 09:32:18;;;;;;;53.85;34.20;;;2.90;99.90;;;;;;7372466;19;20015;-64
2024/03/07 09:34:46;;;;;;;45.95;33.22;;;2.90;99.90;;;;;;7368994;19;20014;-64
2024/03/07 09:37:13;;;;;;;40.80;26.48;;;3.00;99.90;;;;;;7374750;19;20105;-64
2024/03/07 09:39:39;;;;;;;51.20;32.10;;;3.00;99.90;;;;;;7370158;19;21027;-65
2024/03/07 09:42:10;;;;;;;50.08;33.40;;;3.00;99.90;;;;;;7368970;19;20507;-66
2024/03/07 09:44:40;;;;;;;50.30;32.75;;;3.10;99.90;;;;;;7372355;19;20006;-65
2024/03/07 09:47:08;;;;;;;54.40;34.58;;;3.30;99.90;;;;;;7374776;19;20526;-65
2024/03/07 09:49:35;;;;;;;49.80;32.78;;;3.50;99.90;;;;;;7380762;19;20074;-65
2024/03/07 09:52:08;;;;;;;50.70;31.65;;;3.50;99.90;;;;;;7378002;19;20580;-63
2024/03/07 09:54:35;;;;;;;44.50;30.27;;;3.60;99.90;;;;;;7372981;19;20110;-65
2024/03/07 09:57:03;;;;;;;44.55;29.20;;;3.50;99.90;;;;;;7378164;19;20760;-65
2024/03/07 09:59:35;;;;;;;48.55;31.23;;;3.60;99.90;;;;;;7379485;19;20434;-65
2024/03/07 10:02:05;;;;;;;45.38;29.27;;;3.70;99.90;;;;;;7369005;19;20023;-66
2024/03/07 10:04:41;;;;;;;42.25;28.88;;;3.80;99.90;;;;;;7370134;19;20043;-65
2024/03/07 10:07:12;;;;;;;41.45;28.42;;;3.90;99.90;;;;;;7373118;19;20021;-65
2024/03/07 10:09:40;;;;;;;48.03;31.63;;;4.00;99.90;;;;;;7374199;19;20018;-65
2024/03/07 10:12:09;;;;;;;47.47;32.45;;;4.20;99.90;;;;;;7370200;19;20791;-65
2024/03/07 10:14:37;;;;;;;44.22;29.25;;;4.40;99.90;;;;;;7373049;19;20632;-64
2024/03/07 10:17:09;;;;;;;41.08;27.02;;;4.40;99.90;;;;;;7375617;19;20023;-66
2024/03/07 10:19:35;;;;;;;42.13;29.05;;;4.50;99.90;;;;;;7380499;19;20255;-64
2024/03/07 10:22:06;;;;;;;45.05;30.85;;;4.60;99.90;;;;;;7376129;19;20744;-65
2024/03/07 10:24:32;;;;;;;39.85;27.73;;;4.60;99.90;;;;;;7377673;19;20010;-65
2024/03/07 10:27:00;;;;;;;43.08;30.20;;;4.80;99.90;;;;;;7377453;19;20106;-65
2024/03/07 10:29:26;;;;;;;40.10;29.50;;;5.30;99.90;;;;;;7374641;19;20089;-65
2024/03/07 10:31:53;;;;;;;40.60;28.25;;;5.50;99.90;;;;;;7375197;19;20107;-65
2024/03/07 10:34:20;;;;;;;37.13;27.77;;;5.50;99.90;;;;;;7372872;19;21602;-65
2024/03/07 10:36:46;;;;;;;36.88;26.35;;;5.80;99.90;;;;;;7377121;19;20018;-65
2024/03/07 10:39:21;;;;;;;34.50;25.70;;;6.00;99.90;;;;;;7377960;19;20022;-64
2024/03/07 10:41:49;;;;;;;32.00;23.63;;;6.10;99.90;;;;;;7381227;19;20026;-63
2024/03/07 10:44:28;;;;;;;35.00;26.85;;;6.50;99.90;;;;;;7374781;19;20501;-64
2024/03/07 10:46:59;;;;;;;32.28;22.60;;;6.30;99.90;;;;;;7381165;19;20090;-64
2024/03/07 10:49:28;;;;;;;37.85;28.40;;;6.30;99.90;;;;;;7377041;19;20021;-65
2024/03/07 10:52:02;;;;;;;30.25;24.67;;;6.40;99.90;;;;;;7374387;19;20657;-64
2024/03/07 10:54:54;;;;;;;35.45;25.55;;;6.60;99.90;;;;;;7374659;19;20026;-66
2024/03/07 10:57:29;;;;;;;31.67;23.25;;;6.90;99.90;;;;;;7378805;19;20018;-65
2024/03/07 11:00:24;;;;;;;29.13;22.13;;;6.90;99.90;;;;;;7379282;19;20014;-65
2024/03/07 11:02:53;;;;;;;29.83;23.02;;;6.80;99.90;;;;;;7380229;19;20893;-65
2024/03/07 11:05:24;;;;;;;34.95;26.48;;;6.90;99.90;;;;;;7376812;19;20019;-64
2024/03/07 11:07:51;;;;;;;33.75;24.95;;;6.70;99.90;;;;;;7373801;19;20026;-65
2024/03/07 11:10:20;;;;;;;36.28;27.60;;;6.60;99.90;;;;;;7375207;19;20011;-65
2024/03/07 11:12:51;;;;;;;41.00;29.85;;;6.60;99.90;;;;;;7378202;19;21501;-65
2024/03/07 11:15:22;;;;;;;29.45;22.75;;;6.70;99.90;;;;;;7373949;19;20042;-66
2024/03/07 11:17:50;;;;;;;39.67;29.52;;;6.70;99.90;;;;;;7379744;19;20101;-65
2024/03/07 11:20:22;;;;;;;31.90;23.38;;;6.70;99.90;;;;;;7377700;19;20039;-66
2024/03/07 11:22:54;;;;;;;31.73;22.38;;;6.90;99.90;;;;;;7381008;19;20022;-65
2024/03/07 11:25:22;;;;;;;36.42;28.13;;;6.80;99.90;;;;;;7377754;19;20369;-66
2024/03/07 11:27:55;;;;;;;34.67;24.52;;;6.80;99.90;;;;;;7379409;19;20032;-65
2024/03/07 11:30:22;;;;;;;36.80;26.92;;;6.80;99.90;;;;;;7374977;19;20963;-65
2024/03/07 11:32:53;;;;;;;33.35;24.83;;;6.90;99.90;;;;;;7377438;19;20775;-66
2024/03/07 11:35:25;;;;;;;36.80;27.05;;;6.90;99.90;;;;;;7375240;19;20018;-66
2024/03/07 11:37:59;;;;;;;39.17;27.25;;;6.80;99.90;;;;;;7375295;19;20833;-63
2024/03/07 11:40:26;;;;;;;34.97;23.50;;;6.70;99.90;;;;;;7376466;19;20074;-64
2024/03/07 11:42:53;;;;;;;31.75;21.55;;;6.60;99.90;;;;;;7375860;19;20019;-64
2024/03/07 11:45:28;;;;;;;32.75;24.40;;;6.70;99.90;;;;;;7376853;19;20049;-65
2024/03/07 11:48:00;;;;;;;33.88;24.08;;;6.50;99.90;;;;;;7378666;19;20559;-65
2024/03/07 11:50:27;;;;;;;40.03;27.42;;;6.40;99.90;;;;;;7375990;19;20853;-65
2024/03/07 11:52:54;;;;;;;35.88;25.25;;;6.50;99.90;;;;;;7379028;19;20034;-64
2024/03/07 11:55:22;;;;;;;34.63;23.20;;;6.80;99.90;;;;;;7375144;19;20114;-65
2024/03/07 11:57:50;;;;;;;35.67;24.15;;;7.00;99.90;;;;;;7374699;19;20026;-65
2024/03/07 12:00:23;;;;;;;35.17;24.80;;;7.10;99.90;;;;;;7375229;19;20018;-64
2024/03/07 12:02:49;;;;;;;31.92;22.40;;;7.10;99.90;;;;;;7373432;19;20028;-64
2024/03/07 12:05:16;;;;;;;34.80;23.38;;;7.10;99.90;;;;;;7373918;19;20035;-64
2024/03/07 12:07:44;;;;;;;34.53;23.25;;;7.00;99.90;;;;;;7373817;19;20021;-65
2024/03/07 12:10:10;;;;;;;44.67;32.80;;;7.00;99.90;;;;;;7374110;19;20026;-64
2024/03/07 12:12:40;;;;;;;29.80;19.98;;;7.00;99.90;;;;;;7375904;19;20053;-64
2024/03/07 12:15:19;;;;;;;27.17;19.48;;;7.20;99.90;;;;;;7372874;19;20022;-64
2024/03/07 12:17:49;;;;;;;31.63;21.48;;;7.20;99.90;;;;;;7372628;19;20081;-63
2024/03/07 12:20:27;;;;;;;28.45;20.73;;;7.20;99.90;;;;;;7371025;19;20015;-63
2024/03/07 12:23:05;;;;;;;26.42;18.48;;;7.10;99.90;;;;;;7372920;19;20685;-63
2024/03/07 12:25:42;;;;;;;27.08;19.58;;;7.00;99.90;;;;;;7370025;19;20148;-63
2024/03/07 12:28:18;;;;;;;28.40;18.77;;;6.90;99.90;;;;;;7372829;19;20126;-64
2024/03/07 12:30:52;;;;;;;27.83;18.05;;;6.80;99.90;;;;;;7370777;19;20022;-64
2024/03/07 12:33:19;;;;;;;30.67;21.40;;;6.70;99.90;;;;;;7369227;19;20469;-65
2024/03/07 12:35:49;;;;;;;32.03;21.35;;;6.60;99.90;;;;;;7370985;19;20029;-65
2024/03/07 12:38:17;;;;;;;32.33;20.83;;;6.50;99.90;;;;;;7371822;19;20029;-66
2024/03/07 12:40:43;;;;;;;31.75;20.25;;;6.40;99.90;;;;;;7373533;19;20750;-64
2024/03/07 12:43:17;;;;;;;33.05;21.83;;;6.40;99.90;;;;;;7373217;19;20046;-64
2024/03/07 12:45:51;;;;;;;40.15;25.17;;;6.40;99.90;;;;;;7370608;19;20019;-65